sensor_id;sensor_type;location;lat;lon;timestamp;temperature;humidity
31129;DHT22;17777;48.770;8.944;2022-08-04T00:00:45;29.00;36.40
31129;DHT22;17777;48.770;8.944;2022-08-04T00:03:54;29.00;36.40
31129;DHT22;17777;48.770;8.944;2022-08-04T00:12:15;28.80;37.40
31129;DHT22;17777;48.770;8.944;2022-08-04T00:14:48;28.80;36.60
31129;DHT22;17777;48.770;8.944;2022-08-04T00:17:19;28.70;37.20
31129;DHT22;17777;48.770;8.944;2022-08-04T00:19:48;28.70;37.10
31129;DHT22;17777;48.770;8.944;2022-08-04T00:22:22;28.70;37.20
31129;DHT22;17777;48.770;8.944;2022-08-04T00:24:54;28.70;37.30
31129;DHT22;17777;48.770;8.944;2022-08-04T00:27:20;28.60;37.20
31129;DHT22;17777;48.770;8.944;2022-08-04T00:29:47;28.60;37.00
31129;DHT22;17777;48.770;8.944;2022-08-04T00:32:13;28.50;37.10
31129;DHT22;17777;48.770;8.944;2022-08-04T00:34:39;28.50;37.20
31129;DHT22;17777;48.770;8.944;2022-08-04T00:37:06;28.50;37.40
31129;DHT22;17777;48.770;8.944;2022-08-04T00:39:32;28.40;37.40
31129;DHT22;17777;48.770;8.944;2022-08-04T00:51:48;28.20;38.10
31129;DHT22;17777;48.770;8.944;2022-08-04T00:54:41;28.20;38.50
31129;DHT22;17777;48.770;8.944;2022-08-04T01:00:16;28.10;39.20
31129;DHT22;17777;48.770;8.944;2022-08-04T01:20:25;27.90;39.10
31129;DHT22;17777;48.770;8.944;2022-08-04T01:26:31;27.80;39.90
31129;DHT22;17777;48.770;8.944;2022-08-04T01:29:12;27.80;39.40
31129;DHT22;17777;48.770;8.944;2022-08-04T01:34:21;27.80;39.20
31129;DHT22;17777;48.770;8.944;2022-08-04T01:40:05;27.80;39.60
31129;DHT22;17777;48.770;8.944;2022-08-04T01:42:33;27.80;39.00
31129;DHT22;17777;48.770;8.944;2022-08-04T01:45:05;27.70;38.70
31129;DHT22;17777;48.770;8.944;2022-08-04T01:47:39;27.70;39.00
31129;DHT22;17777;48.770;8.944;2022-08-04T01:50:11;27.70;39.30
31129;DHT22;17777;48.770;8.944;2022-08-04T01:52:41;27.70;40.10
31129;DHT22;17777;48.770;8.944;2022-08-04T01:55:10;27.60;39.20
31129;DHT22;17777;48.770;8.944;2022-08-04T01:57:42;27.60;39.20
31129;DHT22;17777;48.770;8.944;2022-08-04T02:00:17;27.60;39.60
31129;DHT22;17777;48.770;8.944;2022-08-04T02:02:49;27.60;39.80
31129;DHT22;17777;48.770;8.944;2022-08-04T02:05:18;27.60;39.40
31129;DHT22;17777;48.770;8.944;2022-08-04T02:08:06;27.60;39.50
31129;DHT22;17777;48.770;8.944;2022-08-04T02:11:03;27.50;39.70
31129;DHT22;17777;48.770;8.944;2022-08-04T02:13:45;27.50;39.40
31129;DHT22;17777;48.770;8.944;2022-08-04T02:16:49;27.50;39.80
31129;DHT22;17777;48.770;8.944;2022-08-04T02:19:25;27.40;40.60
31129;DHT22;17777;48.770;8.944;2022-08-04T02:22:06;27.40;39.60
31129;DHT22;17777;48.770;8.944;2022-08-04T02:24:39;27.40;40.00
31129;DHT22;17777;48.770;8.944;2022-08-04T02:27:12;27.40;39.70
31129;DHT22;17777;48.770;8.944;2022-08-04T02:29:56;27.30;39.50
31129;DHT22;17777;48.770;8.944;2022-08-04T02:32:29;27.30;40.40
31129;DHT22;17777;48.770;8.944;2022-08-04T02:35:14;27.30;39.80
31129;DHT22;17777;48.770;8.944;2022-08-04T02:37:47;27.30;40.10
31129;DHT22;17777;48.770;8.944;2022-08-04T02:40:19;27.30;40.10
31129;DHT22;17777;48.770;8.944;2022-08-04T02:42:46;27.20;40.00
31129;DHT22;17777;48.770;8.944;2022-08-04T02:45:13;27.20;39.90
31129;DHT22;17777;48.770;8.944;2022-08-04T02:47:43;27.10;39.90
31129;DHT22;17777;48.770;8.944;2022-08-04T02:50:11;27.10;40.00
31129;DHT22;17777;48.770;8.944;2022-08-04T02:52:40;27.10;40.20
31129;DHT22;17777;48.770;8.944;2022-08-04T02:55:10;27.10;40.30
31129;DHT22;17777;48.770;8.944;2022-08-04T02:57:37;27.00;40.50
31129;DHT22;17777;48.770;8.944;2022-08-04T03:00:08;27.00;40.80
31129;DHT22;17777;48.770;8.944;2022-08-04T03:06:26;26.90;41.30
31129;DHT22;17777;48.770;8.944;2022-08-04T03:14:34;26.80;41.50
31129;DHT22;17777;48.770;8.944;2022-08-04T03:17:21;26.70;41.60
31129;DHT22;17777;48.770;8.944;2022-08-04T03:22:58;26.60;41.10
31129;DHT22;17777;48.770;8.944;2022-08-04T03:34:20;26.50;41.90
31129;DHT22;17777;48.770;8.944;2022-08-04T03:41:16;26.40;42.70
31129;DHT22;17777;48.770;8.944;2022-08-04T04:08:28;26.10;42.70
31129;DHT22;17777;48.770;8.944;2022-08-04T04:17:20;26.00;42.70
31129;DHT22;17777;48.770;8.944;2022-08-04T04:20:05;26.00;43.10
31129;DHT22;17777;48.770;8.944;2022-08-04T04:41:46;25.90;44.00
31129;DHT22;17777;48.770;8.944;2022-08-04T04:47:54;26.00;44.20
31129;DHT22;17777;48.770;8.944;2022-08-04T04:53:55;25.90;43.30
31129;DHT22;17777;48.770;8.944;2022-08-04T04:56:46;25.90;44.00
31129;DHT22;17777;48.770;8.944;2022-08-04T04:59:19;26.00;44.30
31129;DHT22;17777;48.770;8.944;2022-08-04T05:05:10;26.00;43.80
31129;DHT22;17777;48.770;8.944;2022-08-04T05:07:50;26.00;43.50
31129;DHT22;17777;48.770;8.944;2022-08-04T05:13:23;26.10;43.60
31129;DHT22;17777;48.770;8.944;2022-08-04T05:16:04;26.10;43.10
31129;DHT22;17777;48.770;8.944;2022-08-04T05:18:37;26.20;43.30
31129;DHT22;17777;48.770;8.944;2022-08-04T05:24:09;26.20;44.80
31129;DHT22;17777;48.770;8.944;2022-08-04T05:26:40;26.20;43.30
31129;DHT22;17777;48.770;8.944;2022-08-04T05:29:15;26.30;43.50
31129;DHT22;17777;48.770;8.944;2022-08-04T05:31:50;26.30;43.70
31129;DHT22;17777;48.770;8.944;2022-08-04T05:34:23;26.30;43.70
31129;DHT22;17777;48.770;8.944;2022-08-04T05:36:58;26.40;43.70
31129;DHT22;17777;48.770;8.944;2022-08-04T05:39:35;26.40;43.80
31129;DHT22;17777;48.770;8.944;2022-08-04T05:42:04;26.50;43.90
31129;DHT22;17777;48.770;8.944;2022-08-04T05:44:31;26.50;43.40
31129;DHT22;17777;48.770;8.944;2022-08-04T05:46:58;26.60;43.50
31129;DHT22;17777;48.770;8.944;2022-08-04T05:49:26;26.60;43.50
31129;DHT22;17777;48.770;8.944;2022-08-04T05:51:55;26.60;43.50
31129;DHT22;17777;48.770;8.944;2022-08-04T05:54:25;26.70;43.70
31129;DHT22;17777;48.770;8.944;2022-08-04T05:56:53;26.70;43.50
31129;DHT22;17777;48.770;8.944;2022-08-04T05:59:21;26.80;43.40
31129;DHT22;17777;48.770;8.944;2022-08-04T06:01:50;26.90;43.50
31129;DHT22;17777;48.770;8.944;2022-08-04T06:04:19;26.90;43.50
31129;DHT22;17777;48.770;8.944;2022-08-04T06:06:47;27.00;43.40
31129;DHT22;17777;48.770;8.944;2022-08-04T06:09:14;27.00;43.40
31129;DHT22;17777;48.770;8.944;2022-08-04T06:11:40;27.00;43.30
31129;DHT22;17777;48.770;8.944;2022-08-04T06:14:08;27.10;43.30
31129;DHT22;17777;48.770;8.944;2022-08-04T06:16:40;27.20;43.30
31129;DHT22;17777;48.770;8.944;2022-08-04T06:19:10;27.30;43.50
31129;DHT22;17777;48.770;8.944;2022-08-04T06:21:40;27.40;43.40
31129;DHT22;17777;48.770;8.944;2022-08-04T06:24:11;27.50;43.20
31129;DHT22;17777;48.770;8.944;2022-08-04T06:26:41;27.60;43.20
31129;DHT22;17777;48.770;8.944;2022-08-04T06:29:09;27.70;43.10
31129;DHT22;17777;48.770;8.944;2022-08-04T06:31:46;27.80;43.00
31129;DHT22;17777;48.770;8.944;2022-08-04T06:34:25;27.90;42.80
31129;DHT22;17777;48.770;8.944;2022-08-04T06:36:51;28.10;42.70
31129;DHT22;17777;48.770;8.944;2022-08-04T06:39:18;28.20;42.70
31129;DHT22;17777;48.770;8.944;2022-08-04T06:41:49;28.30;42.60
31129;DHT22;17777;48.770;8.944;2022-08-04T06:44:16;28.50;42.50
31129;DHT22;17777;48.770;8.944;2022-08-04T06:46:44;28.50;42.30
31129;DHT22;17777;48.770;8.944;2022-08-04T06:49:10;28.70;42.90
31129;DHT22;17777;48.770;8.944;2022-08-04T06:51:37;28.80;42.10
31129;DHT22;17777;48.770;8.944;2022-08-04T06:54:04;28.90;42.00
31129;DHT22;17777;48.770;8.944;2022-08-04T06:56:30;29.00;41.80
31129;DHT22;17777;48.770;8.944;2022-08-04T06:59:00;29.10;41.80
31129;DHT22;17777;48.770;8.944;2022-08-04T07:01:28;29.20;41.50
31129;DHT22;17777;48.770;8.944;2022-08-04T07:03:55;29.30;41.40
31129;DHT22;17777;48.770;8.944;2022-08-04T07:06:21;29.40;41.20
31129;DHT22;17777;48.770;8.944;2022-08-04T07:08:48;29.40;41.10
31129;DHT22;17777;48.770;8.944;2022-08-04T07:11:15;29.60;41.10
31129;DHT22;17777;48.770;8.944;2022-08-04T07:13:42;29.60;40.90
31129;DHT22;17777;48.770;8.944;2022-08-04T07:16:12;29.70;40.70
31129;DHT22;17777;48.770;8.944;2022-08-04T07:18:39;29.80;40.50
31129;DHT22;17777;48.770;8.944;2022-08-04T07:21:06;29.90;40.50
31129;DHT22;17777;48.770;8.944;2022-08-04T07:23:32;30.00;40.10
31129;DHT22;17777;48.770;8.944;2022-08-04T07:25:58;30.10;40.10
31129;DHT22;17777;48.770;8.944;2022-08-04T07:28:26;30.20;40.30
31129;DHT22;17777;48.770;8.944;2022-08-04T07:30:54;30.30;40.00
31129;DHT22;17777;48.770;8.944;2022-08-04T07:33:21;30.40;39.80
31129;DHT22;17777;48.770;8.944;2022-08-04T07:35:51;30.50;39.70
31129;DHT22;17777;48.770;8.944;2022-08-04T07:38:19;30.60;39.30
31129;DHT22;17777;48.770;8.944;2022-08-04T07:40:45;30.70;39.40
31129;DHT22;17777;48.770;8.944;2022-08-04T07:43:14;30.80;38.80
31129;DHT22;17777;48.770;8.944;2022-08-04T07:45:41;30.90;38.60
31129;DHT22;17777;48.770;8.944;2022-08-04T07:48:08;31.00;38.60
31129;DHT22;17777;48.770;8.944;2022-08-04T07:50:36;31.10;38.30
31129;DHT22;17777;48.770;8.944;2022-08-04T07:53:03;31.20;37.90
31129;DHT22;17777;48.770;8.944;2022-08-04T07:55:29;31.30;37.90
31129;DHT22;17777;48.770;8.944;2022-08-04T07:57:55;31.50;37.70
31129;DHT22;17777;48.770;8.944;2022-08-04T08:00:21;31.60;37.80
31129;DHT22;17777;48.770;8.944;2022-08-04T08:02:49;31.70;37.40
31129;DHT22;17777;48.770;8.944;2022-08-04T08:05:17;31.80;37.50
31129;DHT22;17777;48.770;8.944;2022-08-04T08:07:50;31.90;37.00
31129;DHT22;17777;48.770;8.944;2022-08-04T08:10:17;32.00;36.60
31129;DHT22;17777;48.770;8.944;2022-08-04T08:12:43;32.10;36.80
31129;DHT22;17777;48.770;8.944;2022-08-04T08:15:10;32.20;36.40
31129;DHT22;17777;48.770;8.944;2022-08-04T08:17:40;32.20;36.30
31129;DHT22;17777;48.770;8.944;2022-08-04T08:20:06;32.40;36.20
31129;DHT22;17777;48.770;8.944;2022-08-04T08:22:33;32.40;36.20
31129;DHT22;17777;48.770;8.944;2022-08-04T08:25:01;32.50;36.20
31129;DHT22;17777;48.770;8.944;2022-08-04T08:27:27;32.60;36.20
31129;DHT22;17777;48.770;8.944;2022-08-04T08:29:53;32.70;36.00
31129;DHT22;17777;48.770;8.944;2022-08-04T08:32:20;32.80;35.80
31129;DHT22;17777;48.770;8.944;2022-08-04T08:34:46;33.00;35.80
31129;DHT22;17777;48.770;8.944;2022-08-04T08:39:58;33.10;35.50
31129;DHT22;17777;48.770;8.944;2022-08-04T08:54:55;33.80;34.60
31129;DHT22;17777;48.770;8.944;2022-08-04T09:05:11;34.10;33.60
31129;DHT22;17777;48.770;8.944;2022-08-04T09:08:21;34.20;32.30
31129;DHT22;17777;48.770;8.944;2022-08-04T09:11:14;34.40;33.40
31129;DHT22;17777;48.770;8.944;2022-08-04T09:13:49;34.50;34.00
31129;DHT22;17777;48.770;8.944;2022-08-04T09:16:39;34.60;32.80
31129;DHT22;17777;48.770;8.944;2022-08-04T09:19:28;34.60;32.00
31129;DHT22;17777;48.770;8.944;2022-08-04T09:22:17;34.80;32.90
31129;DHT22;17777;48.770;8.944;2022-08-04T09:24:52;34.90;32.80
31129;DHT22;17777;48.770;8.944;2022-08-04T09:27:39;35.10;33.10
31129;DHT22;17777;48.770;8.944;2022-08-04T09:30:12;35.10;32.50
31129;DHT22;17777;48.770;8.944;2022-08-04T09:36:03;35.30;32.10
31129;DHT22;17777;48.770;8.944;2022-08-04T09:39:02;35.50;31.60
31129;DHT22;17777;48.770;8.944;2022-08-04T09:41:41;35.60;30.80
31129;DHT22;17777;48.770;8.944;2022-08-04T09:44:39;35.70;32.00
31129;DHT22;17777;48.770;8.944;2022-08-04T09:47:34;35.80;31.00
31129;DHT22;17777;48.770;8.944;2022-08-04T09:50:38;35.90;31.00
31129;DHT22;17777;48.770;8.944;2022-08-04T09:53:17;36.00;30.70
31129;DHT22;17777;48.770;8.944;2022-08-04T09:55:59;36.10;28.50
31129;DHT22;17777;48.770;8.944;2022-08-04T10:01:08;36.30;30.00
31129;DHT22;17777;48.770;8.944;2022-08-04T10:03:38;36.30;30.60
31129;DHT22;17777;48.770;8.944;2022-08-04T10:15:02;36.60;27.90
31129;DHT22;17777;48.770;8.944;2022-08-04T10:26:35;37.00;28.90
31129;DHT22;17777;48.770;8.944;2022-08-04T10:29:14;37.20;27.90
31129;DHT22;17777;48.770;8.944;2022-08-04T10:32:24;37.40;28.00
31129;DHT22;17777;48.770;8.944;2022-08-04T10:35:18;37.50;25.90
31129;DHT22;17777;48.770;8.944;2022-08-04T10:40:57;38.00;28.00
31129;DHT22;17777;48.770;8.944;2022-08-04T10:46:28;38.30;25.50
31129;DHT22;17777;48.770;8.944;2022-08-04T10:49:03;38.50;26.30
31129;DHT22;17777;48.770;8.944;2022-08-04T10:54:36;38.70;24.90
31129;DHT22;17777;48.770;8.944;2022-08-04T10:57:37;38.90;25.20
31129;DHT22;17777;48.770;8.944;2022-08-04T11:00:07;39.00;25.90
31129;DHT22;17777;48.770;8.944;2022-08-04T11:05:23;39.10;24.80
31129;DHT22;17777;48.770;8.944;2022-08-04T11:08:00;39.20;26.20
31129;DHT22;17777;48.770;8.944;2022-08-04T11:10:32;39.20;25.50
31129;DHT22;17777;48.770;8.944;2022-08-04T11:13:04;39.20;25.60
31129;DHT22;17777;48.770;8.944;2022-08-04T11:15:37;39.20;25.20
31129;DHT22;17777;48.770;8.944;2022-08-04T11:18:13;39.20;25.40
31129;DHT22;17777;48.770;8.944;2022-08-04T11:21:13;39.20;25.50
31129;DHT22;17777;48.770;8.944;2022-08-04T11:23:50;39.20;25.40
31129;DHT22;17777;48.770;8.944;2022-08-04T11:26:28;39.20;25.40
31129;DHT22;17777;48.770;8.944;2022-08-04T11:29:15;39.20;25.60
31129;DHT22;17777;48.770;8.944;2022-08-04T11:31:47;39.30;25.50
31129;DHT22;17777;48.770;8.944;2022-08-04T11:36:51;39.30;24.90
31129;DHT22;17777;48.770;8.944;2022-08-04T11:42:25;39.40;24.40
31129;DHT22;17777;48.770;8.944;2022-08-04T11:44:59;39.40;25.00
31129;DHT22;17777;48.770;8.944;2022-08-04T11:47:29;39.40;25.20
31129;DHT22;17777;48.770;8.944;2022-08-04T11:50:04;39.40;25.20
31129;DHT22;17777;48.770;8.944;2022-08-04T11:52:37;39.40;25.00
31129;DHT22;17777;48.770;8.944;2022-08-04T11:55:08;39.40;24.70
31129;DHT22;17777;48.770;8.944;2022-08-04T11:57:36;39.40;24.60
31129;DHT22;17777;48.770;8.944;2022-08-04T12:00:08;39.50;25.40
31129;DHT22;17777;48.770;8.944;2022-08-04T12:06:13;39.50;25.00
31129;DHT22;17777;48.770;8.944;2022-08-04T12:12:18;39.60;23.80
31129;DHT22;17777;48.770;8.944;2022-08-04T12:15:07;39.60;24.50
31129;DHT22;17777;48.770;8.944;2022-08-04T12:18:09;39.70;24.60
31129;DHT22;17777;48.770;8.944;2022-08-04T12:20:46;39.70;23.80
31129;DHT22;17777;48.770;8.944;2022-08-04T12:23:37;39.70;24.30
31129;DHT22;17777;48.770;8.944;2022-08-04T12:26:34;39.70;23.50
31129;DHT22;17777;48.770;8.944;2022-08-04T12:29:04;39.80;24.10
31129;DHT22;17777;48.770;8.944;2022-08-04T12:34:30;39.90;24.40
31129;DHT22;17777;48.770;8.944;2022-08-04T12:39:52;40.00;24.70
31129;DHT22;17777;48.770;8.944;2022-08-04T12:42:25;40.00;24.10
31129;DHT22;17777;48.770;8.944;2022-08-04T12:44:54;40.00;23.60
31129;DHT22;17777;48.770;8.944;2022-08-04T12:47:23;40.00;24.10
31129;DHT22;17777;48.770;8.944;2022-08-04T12:49:52;40.10;24.40
31129;DHT22;17777;48.770;8.944;2022-08-04T12:52:19;40.10;24.20
31129;DHT22;17777;48.770;8.944;2022-08-04T12:54:51;40.10;23.90
31129;DHT22;17777;48.770;8.944;2022-08-04T12:57:20;40.10;23.80
31129;DHT22;17777;48.770;8.944;2022-08-04T12:59:47;40.10;23.80
31129;DHT22;17777;48.770;8.944;2022-08-04T13:02:26;40.00;23.30
31129;DHT22;17777;48.770;8.944;2022-08-04T13:04:54;40.00;23.40
31129;DHT22;17777;48.770;8.944;2022-08-04T13:07:25;39.90;23.30
31129;DHT22;17777;48.770;8.944;2022-08-04T13:09:51;39.80;23.40
31129;DHT22;17777;48.770;8.944;2022-08-04T13:12:23;39.90;23.80
31129;DHT22;17777;48.770;8.944;2022-08-04T13:14:58;39.80;23.60
31129;DHT22;17777;48.770;8.944;2022-08-04T13:17:55;39.80;24.80
31129;DHT22;17777;48.770;8.944;2022-08-04T13:20:31;39.70;24.00
31129;DHT22;17777;48.770;8.944;2022-08-04T13:23:09;39.80;24.80
31129;DHT22;17777;48.770;8.944;2022-08-04T13:25:44;39.80;24.20
31129;DHT22;17777;48.770;8.944;2022-08-04T13:28:20;39.90;23.80
31129;DHT22;17777;48.770;8.944;2022-08-04T13:30:53;39.90;23.40
31129;DHT22;17777;48.770;8.944;2022-08-04T13:33:22;39.90;24.00
31129;DHT22;17777;48.770;8.944;2022-08-04T13:36:00;40.00;24.00
31129;DHT22;17777;48.770;8.944;2022-08-04T13:38:27;40.10;24.00
31129;DHT22;17777;48.770;8.944;2022-08-04T13:41:02;40.20;24.00
31129;DHT22;17777;48.770;8.944;2022-08-04T13:43:32;40.20;23.00
31129;DHT22;17777;48.770;8.944;2022-08-04T13:46:04;40.20;23.50
31129;DHT22;17777;48.770;8.944;2022-08-04T13:48:38;40.30;23.30
31129;DHT22;17777;48.770;8.944;2022-08-04T13:51:05;40.30;24.00
31129;DHT22;17777;48.770;8.944;2022-08-04T13:53:34;40.30;23.90
31129;DHT22;17777;48.770;8.944;2022-08-04T13:56:04;40.30;23.80
31129;DHT22;17777;48.770;8.944;2022-08-04T13:58:41;40.30;23.00
31129;DHT22;17777;48.770;8.944;2022-08-04T14:01:15;40.30;23.20
31129;DHT22;17777;48.770;8.944;2022-08-04T14:04:14;40.40;23.60
31129;DHT22;17777;48.770;8.944;2022-08-04T14:09:26;40.50;22.40
31129;DHT22;17777;48.770;8.944;2022-08-04T14:11:55;40.50;23.40
31129;DHT22;17777;48.770;8.944;2022-08-04T14:14:31;40.50;23.00
31129;DHT22;17777;48.770;8.944;2022-08-04T14:17:15;40.60;23.50
31129;DHT22;17777;48.770;8.944;2022-08-04T14:19:59;40.60;23.20
31129;DHT22;17777;48.770;8.944;2022-08-04T14:27:52;40.60;22.50
31129;DHT22;17777;48.770;8.944;2022-08-04T14:30:32;40.70;22.80
31129;DHT22;17777;48.770;8.944;2022-08-04T14:35:28;40.70;23.10
31129;DHT22;17777;48.770;8.944;2022-08-04T14:37:59;40.70;22.80
31129;DHT22;17777;48.770;8.944;2022-08-04T14:40:37;40.70;22.90
31129;DHT22;17777;48.770;8.944;2022-08-04T14:43:05;40.70;23.00
31129;DHT22;17777;48.770;8.944;2022-08-04T14:48:09;40.80;23.30
31129;DHT22;17777;48.770;8.944;2022-08-04T14:50:41;40.80;23.20
31129;DHT22;17777;48.770;8.944;2022-08-04T14:55:48;40.80;21.90
31129;DHT22;17777;48.770;8.944;2022-08-04T14:58:21;41.00;22.90
31129;DHT22;17777;48.770;8.944;2022-08-04T15:01:00;41.00;22.80
31129;DHT22;17777;48.770;8.944;2022-08-04T15:03:28;40.80;21.40
31129;DHT22;17777;48.770;8.944;2022-08-04T15:05:56;40.80;22.40
31129;DHT22;17777;48.770;8.944;2022-08-04T15:08:23;40.80;22.60
31129;DHT22;17777;48.770;8.944;2022-08-04T15:10:50;40.80;22.50
31129;DHT22;17777;48.770;8.944;2022-08-04T15:13:17;40.80;22.50
31129;DHT22;17777;48.770;8.944;2022-08-04T15:15:43;40.80;22.90
31129;DHT22;17777;48.770;8.944;2022-08-04T15:18:11;40.80;22.40
31129;DHT22;17777;48.770;8.944;2022-08-04T15:20:38;40.80;22.40
31129;DHT22;17777;48.770;8.944;2022-08-04T15:23:05;40.80;22.40
31129;DHT22;17777;48.770;8.944;2022-08-04T15:25:36;40.80;22.60
31129;DHT22;17777;48.770;8.944;2022-08-04T15:28:06;40.80;22.80
31129;DHT22;17777;48.770;8.944;2022-08-04T15:30:37;40.80;22.80
31129;DHT22;17777;48.770;8.944;2022-08-04T15:33:04;40.80;22.70
31129;DHT22;17777;48.770;8.944;2022-08-04T15:35:32;40.80;22.60
31129;DHT22;17777;48.770;8.944;2022-08-04T15:47:40;40.80;22.10
31129;DHT22;17777;48.770;8.944;2022-08-04T15:50:11;40.80;22.60
31129;DHT22;17777;48.770;8.944;2022-08-04T15:52:59;40.80;22.40
31129;DHT22;17777;48.770;8.944;2022-08-04T15:55:37;40.80;22.50
31129;DHT22;17777;48.770;8.944;2022-08-04T15:58:08;40.70;22.60
31129;DHT22;17777;48.770;8.944;2022-08-04T16:08:57;40.70;22.20
31129;DHT22;17777;48.770;8.944;2022-08-04T16:16:45;40.60;21.80
31129;DHT22;17777;48.770;8.944;2022-08-04T16:22:12;40.60;22.10
31129;DHT22;17777;48.770;8.944;2022-08-04T16:24:55;40.60;22.20
31129;DHT22;17777;48.770;8.944;2022-08-04T16:27:38;40.60;22.30
31129;DHT22;17777;48.770;8.944;2022-08-04T16:30:07;40.50;22.20
31129;DHT22;17777;48.770;8.944;2022-08-04T16:32:39;40.50;22.10
31129;DHT22;17777;48.770;8.944;2022-08-04T16:35:26;40.50;22.20
31129;DHT22;17777;48.770;8.944;2022-08-04T16:38:13;40.50;22.20
31129;DHT22;17777;48.770;8.944;2022-08-04T16:40:41;40.50;22.20
31129;DHT22;17777;48.770;8.944;2022-08-04T16:43:15;40.50;22.00
31129;DHT22;17777;48.770;8.944;2022-08-04T16:48:31;40.50;21.90
31129;DHT22;17777;48.770;8.944;2022-08-04T16:51:09;40.50;21.50
31129;DHT22;17777;48.770;8.944;2022-08-04T16:53:39;40.50;21.90
31129;DHT22;17777;48.770;8.944;2022-08-04T16:56:14;40.40;21.90
31129;DHT22;17777;48.770;8.944;2022-08-04T16:58:45;40.40;21.90
31129;DHT22;17777;48.770;8.944;2022-08-04T17:01:15;40.30;22.00
31129;DHT22;17777;48.770;8.944;2022-08-04T17:03:49;40.30;22.00
31129;DHT22;17777;48.770;8.944;2022-08-04T17:06:16;40.30;22.10
31129;DHT22;17777;48.770;8.944;2022-08-04T17:08:43;40.30;22.20
31129;DHT22;17777;48.770;8.944;2022-08-04T17:11:12;40.30;22.20
31129;DHT22;17777;48.770;8.944;2022-08-04T17:13:39;40.30;22.10
31129;DHT22;17777;48.770;8.944;2022-08-04T17:16:14;40.20;22.30
31129;DHT22;17777;48.770;8.944;2022-08-04T17:18:48;40.20;22.20
31129;DHT22;17777;48.770;8.944;2022-08-04T17:21:27;40.20;22.40
31129;DHT22;17777;48.770;8.944;2022-08-04T17:23:57;40.20;22.40
31129;DHT22;17777;48.770;8.944;2022-08-04T17:26:27;40.10;22.10
31129;DHT22;17777;48.770;8.944;2022-08-04T17:28:55;40.10;22.30
31129;DHT22;17777;48.770;8.944;2022-08-04T17:31:25;40.10;22.40
31129;DHT22;17777;48.770;8.944;2022-08-04T17:33:53;40.00;22.30
31129;DHT22;17777;48.770;8.944;2022-08-04T17:36:29;40.00;22.40
31129;DHT22;17777;48.770;8.944;2022-08-04T17:38:58;40.00;22.40
31129;DHT22;17777;48.770;8.944;2022-08-04T17:41:27;40.00;22.90
31129;DHT22;17777;48.770;8.944;2022-08-04T17:44:01;39.90;22.30
31129;DHT22;17777;48.770;8.944;2022-08-04T17:46:35;39.90;22.30
31129;DHT22;17777;48.770;8.944;2022-08-04T17:49:20;39.90;22.30
31129;DHT22;17777;48.770;8.944;2022-08-04T17:56:53;39.80;22.50
31129;DHT22;17777;48.770;8.944;2022-08-04T17:59:44;39.70;22.50
31129;DHT22;17777;48.770;8.944;2022-08-04T18:02:16;39.70;22.50
31129;DHT22;17777;48.770;8.944;2022-08-04T18:07:13;39.70;22.60
31129;DHT22;17777;48.770;8.944;2022-08-04T18:12:21;39.60;22.70
31129;DHT22;17777;48.770;8.944;2022-08-04T18:14:49;39.60;22.70
31129;DHT22;17777;48.770;8.944;2022-08-04T18:20:15;39.50;22.70
31129;DHT22;17777;48.770;8.944;2022-08-04T18:22:48;39.50;23.00
31129;DHT22;17777;48.770;8.944;2022-08-04T18:25:16;39.50;22.90
31129;DHT22;17777;48.770;8.944;2022-08-04T18:27:49;39.40;22.90
31129;DHT22;17777;48.770;8.944;2022-08-04T18:30:19;39.40;23.10
31129;DHT22;17777;48.770;8.944;2022-08-04T18:32:46;39.40;23.00
31129;DHT22;17777;48.770;8.944;2022-08-04T18:35:12;39.30;23.10
31129;DHT22;17777;48.770;8.944;2022-08-04T18:37:39;39.20;23.10
31129;DHT22;17777;48.770;8.944;2022-08-04T18:40:06;39.20;23.20
31129;DHT22;17777;48.770;8.944;2022-08-04T18:42:33;39.20;23.50
31129;DHT22;17777;48.770;8.944;2022-08-04T18:45:00;39.10;23.50
31129;DHT22;17777;48.770;8.944;2022-08-04T18:47:26;39.10;23.60
31129;DHT22;17777;48.770;8.944;2022-08-04T18:49:55;39.00;23.70
31129;DHT22;17777;48.770;8.944;2022-08-04T18:52:22;38.90;24.00
31129;DHT22;17777;48.770;8.944;2022-08-04T18:54:48;38.90;24.10
31129;DHT22;17777;48.770;8.944;2022-08-04T18:57:19;38.80;24.10
31129;DHT22;17777;48.770;8.944;2022-08-04T18:59:46;38.70;24.30
31129;DHT22;17777;48.770;8.944;2022-08-04T19:02:12;38.70;24.40
31129;DHT22;17777;48.770;8.944;2022-08-04T19:04:39;38.60;24.30
31129;DHT22;17777;48.770;8.944;2022-08-04T19:07:05;38.50;24.50
31129;DHT22;17777;48.770;8.944;2022-08-04T19:09:31;38.40;24.60
31129;DHT22;17777;48.770;8.944;2022-08-04T19:11:57;38.40;24.60
31129;DHT22;17777;48.770;8.944;2022-08-04T19:14:23;38.30;24.70
31129;DHT22;17777;48.770;8.944;2022-08-04T19:16:49;38.20;25.10
31129;DHT22;17777;48.770;8.944;2022-08-04T19:19:15;38.10;25.20
31129;DHT22;17777;48.770;8.944;2022-08-04T19:21:43;38.00;25.40
31129;DHT22;17777;48.770;8.944;2022-08-04T19:24:09;37.80;25.10
31129;DHT22;17777;48.770;8.944;2022-08-04T19:26:37;37.70;25.20
31129;DHT22;17777;48.770;8.944;2022-08-04T19:29:03;37.60;25.30
31129;DHT22;17777;48.770;8.944;2022-08-04T19:31:29;37.40;25.40
31129;DHT22;17777;48.770;8.944;2022-08-04T19:33:56;37.40;25.70
31129;DHT22;17777;48.770;8.944;2022-08-04T19:36:23;37.20;25.70
31129;DHT22;17777;48.770;8.944;2022-08-04T19:38:52;37.10;25.90
31129;DHT22;17777;48.770;8.944;2022-08-04T19:41:18;37.00;26.10
31129;DHT22;17777;48.770;8.944;2022-08-04T19:43:45;36.90;26.10
31129;DHT22;17777;48.770;8.944;2022-08-04T19:46:14;36.80;26.00
31129;DHT22;17777;48.770;8.944;2022-08-04T19:48:40;36.70;26.30
31129;DHT22;17777;48.770;8.944;2022-08-04T19:51:08;36.60;26.30
31129;DHT22;17777;48.770;8.944;2022-08-04T19:53:34;36.60;26.50
31129;DHT22;17777;48.770;8.944;2022-08-04T19:56:00;36.50;26.60
31129;DHT22;17777;48.770;8.944;2022-08-04T19:58:25;36.40;26.60
31129;DHT22;17777;48.770;8.944;2022-08-04T20:00:51;36.30;26.80
31129;DHT22;17777;48.770;8.944;2022-08-04T20:03:18;36.20;26.90
31129;DHT22;17777;48.770;8.944;2022-08-04T20:05:44;36.10;27.10
31129;DHT22;17777;48.770;8.944;2022-08-04T20:08:10;36.00;27.20
31129;DHT22;17777;48.770;8.944;2022-08-04T20:10:36;35.90;27.10
31129;DHT22;17777;48.770;8.944;2022-08-04T20:13:04;35.80;27.20
31129;DHT22;17777;48.770;8.944;2022-08-04T20:15:30;35.70;27.40
31129;DHT22;17777;48.770;8.944;2022-08-04T20:17:56;35.60;27.60
31129;DHT22;17777;48.770;8.944;2022-08-04T20:20:22;35.60;27.70
31129;DHT22;17777;48.770;8.944;2022-08-04T20:22:48;35.40;27.70
31129;DHT22;17777;48.770;8.944;2022-08-04T20:25:13;35.40;27.90
31129;DHT22;17777;48.770;8.944;2022-08-04T20:27:39;35.30;28.00
31129;DHT22;17777;48.770;8.944;2022-08-04T20:30:06;35.20;28.00
31129;DHT22;17777;48.770;8.944;2022-08-04T20:32:32;35.10;28.10
31129;DHT22;17777;48.770;8.944;2022-08-04T20:34:58;35.00;28.20